sensor_id;sensor_type;location;lat;lon;timestamp;P1;durP1;ratioP1;P2;durP2;ratioP2
7645;SDS011;3864;48.180;14.178;2023-09-19T00:02:25;4.57;;;2.45;;
7645;SDS011;3864;48.180;14.178;2023-09-19T00:04:52;5.57;;;2.85;;
7645;SDS011;3864;48.180;14.178;2023-09-19T00:07:19;5.25;;;2.95;;
7645;SDS011;3864;48.180;14.178;2023-09-19T00:09:46;4.38;;;3.03;;
7645;SDS011;3864;48.180;14.178;2023-09-19T00:12:13;3.95;;;2.65;;
7645;SDS011;3864;48.180;14.178;2023-09-19T00:14:42;5.60;;;2.65;;
7645;SDS011;3864;48.180;14.178;2023-09-19T00:17:09;5.10;;;2.55;;
7645;SDS011;3864;48.180;14.178;2023-09-19T00:19:36;3.47;;;2.28;;
7645;SDS011;3864;48.180;14.178;2023-09-19T00:22:03;3.58;;;2.22;;
7645;SDS011;3864;48.180;14.178;2023-09-19T00:24:30;4.10;;;2.40;;
7645;SDS011;3864;48.180;14.178;2023-09-19T00:26:57;4.80;;;2.60;;
7645;SDS011;3864;48.180;14.178;2023-09-19T00:29:25;4.95;;;2.47;;
7645;SDS011;3864;48.180;14.178;2023-09-19T00:31:56;8.38;;;2.70;;
7645;SDS011;3864;48.180;14.178;2023-09-19T00:34:24;4.90;;;3.35;;
7645;SDS011;3864;48.180;14.178;2023-09-19T00:36:53;5.50;;;2.53;;
7645;SDS011;3864;48.180;14.178;2023-09-19T00:39:20;4.45;;;2.35;;
7645;SDS011;3864;48.180;14.178;2023-09-19T00:41:47;4.65;;;2.70;;
7645;SDS011;3864;48.180;14.178;2023-09-19T00:44:15;4.70;;;2.60;;
7645;SDS011;3864;48.180;14.178;2023-09-19T00:46:44;4.03;;;2.33;;
7645;SDS011;3864;48.180;14.178;2023-09-19T00:49:16;4.80;;;2.70;;
7645;SDS011;3864;48.180;14.178;2023-09-19T00:51:45;3.78;;;2.50;;
7645;SDS011;3864;48.180;14.178;2023-09-19T00:54:13;5.90;;;2.42;;
7645;SDS011;3864;48.180;14.178;2023-09-19T00:56:43;6.32;;;2.63;;
7645;SDS011;3864;48.180;14.178;2023-09-19T00:59:12;5.43;;;3.00;;
7645;SDS011;3864;48.180;14.178;2023-09-19T01:01:39;5.53;;;2.70;;
7645;SDS011;3864;48.180;14.178;2023-09-19T01:04:06;3.67;;;2.00;;
7645;SDS011;3864;48.180;14.178;2023-09-19T01:06:36;4.22;;;2.10;;
7645;SDS011;3864;48.180;14.178;2023-09-19T01:09:04;3.72;;;2.03;;
7645;SDS011;3864;48.180;14.178;2023-09-19T01:11:33;4.30;;;2.13;;
7645;SDS011;3864;48.180;14.178;2023-09-19T01:14:10;3.55;;;2.00;;
7645;SDS011;3864;48.180;14.178;2023-09-19T01:16:48;11.57;;;2.60;;
7645;SDS011;3864;48.180;14.178;2023-09-19T01:19:33;3.25;;;2.08;;
7645;SDS011;3864;48.180;14.178;2023-09-19T01:22:36;4.68;;;1.90;;
7645;SDS011;3864;48.180;14.178;2023-09-19T01:28:32;4.45;;;2.63;;
7645;SDS011;3864;48.180;14.178;2023-09-19T01:31:10;3.72;;;2.22;;
7645;SDS011;3864;48.180;14.178;2023-09-19T01:33:54;5.07;;;2.75;;
7645;SDS011;3864;48.180;14.178;2023-09-19T01:36:30;5.55;;;2.60;;
7645;SDS011;3864;48.180;14.178;2023-09-19T01:38:59;6.50;;;2.45;;
7645;SDS011;3864;48.180;14.178;2023-09-19T01:41:33;6.13;;;2.67;;
7645;SDS011;3864;48.180;14.178;2023-09-19T01:44:17;4.35;;;2.10;;
7645;SDS011;3864;48.180;14.178;2023-09-19T01:46:51;4.88;;;2.00;;
7645;SDS011;3864;48.180;14.178;2023-09-19T01:49:26;6.88;;;2.72;;
7645;SDS011;3864;48.180;14.178;2023-09-19T01:52:00;4.95;;;2.40;;
7645;SDS011;3864;48.180;14.178;2023-09-19T01:54:33;5.22;;;2.40;;
7645;SDS011;3864;48.180;14.178;2023-09-19T01:57:07;3.90;;;2.35;;
7645;SDS011;3864;48.180;14.178;2023-09-19T01:59:41;5.57;;;2.55;;
7645;SDS011;3864;48.180;14.178;2023-09-19T02:02:17;4.55;;;2.35;;
7645;SDS011;3864;48.180;14.178;2023-09-19T02:04:47;5.30;;;3.13;;
7645;SDS011;3864;48.180;14.178;2023-09-19T02:07:15;5.95;;;2.83;;
7645;SDS011;3864;48.180;14.178;2023-09-19T02:09:43;5.75;;;2.40;;
7645;SDS011;3864;48.180;14.178;2023-09-19T02:12:10;4.20;;;2.50;;
7645;SDS011;3864;48.180;14.178;2023-09-19T02:14:38;8.75;;;2.60;;
7645;SDS011;3864;48.180;14.178;2023-09-19T02:17:06;6.07;;;2.45;;
7645;SDS011;3864;48.180;14.178;2023-09-19T02:19:37;5.30;;;2.65;;
7645;SDS011;3864;48.180;14.178;2023-09-19T02:22:06;4.63;;;2.50;;
7645;SDS011;3864;48.180;14.178;2023-09-19T02:24:35;4.97;;;2.53;;
7645;SDS011;3864;48.180;14.178;2023-09-19T02:27:03;4.20;;;2.40;;
7645;SDS011;3864;48.180;14.178;2023-09-19T02:29:31;5.50;;;2.58;;
7645;SDS011;3864;48.180;14.178;2023-09-19T02:31:59;6.70;;;2.53;;
7645;SDS011;3864;48.180;14.178;2023-09-19T02:34:26;5.93;;;2.63;;
7645;SDS011;3864;48.180;14.178;2023-09-19T02:36:55;4.97;;;2.40;;
7645;SDS011;3864;48.180;14.178;2023-09-19T02:39:22;5.30;;;2.92;;
7645;SDS011;3864;48.180;14.178;2023-09-19T02:41:50;6.45;;;3.08;;
7645;SDS011;3864;48.180;14.178;2023-09-19T02:44:17;6.72;;;3.35;;
7645;SDS011;3864;48.180;14.178;2023-09-19T02:46:45;6.93;;;3.13;;
7645;SDS011;3864;48.180;14.178;2023-09-19T02:49:12;8.68;;;3.17;;
7645;SDS011;3864;48.180;14.178;2023-09-19T02:51:39;5.47;;;2.85;;
7645;SDS011;3864;48.180;14.178;2023-09-19T02:54:09;8.27;;;2.92;;
7645;SDS011;3864;48.180;14.178;2023-09-19T02:56:36;9.80;;;2.90;;
7645;SDS011;3864;48.180;14.178;2023-09-19T02:59:04;5.50;;;3.17;;
7645;SDS011;3864;48.180;14.178;2023-09-19T03:01:32;7.53;;;2.80;;
7645;SDS011;3864;48.180;14.178;2023-09-19T03:04:00;4.75;;;3.00;;
7645;SDS011;3864;48.180;14.178;2023-09-19T03:06:27;10.35;;;4.07;;
7645;SDS011;3864;48.180;14.178;2023-09-19T03:08:56;6.10;;;2.97;;
7645;SDS011;3864;48.180;14.178;2023-09-19T03:11:27;7.75;;;3.10;;
7645;SDS011;3864;48.180;14.178;2023-09-19T03:13:54;6.10;;;2.83;;
7645;SDS011;3864;48.180;14.178;2023-09-19T03:16:21;4.93;;;3.03;;
7645;SDS011;3864;48.180;14.178;2023-09-19T03:18:50;7.93;;;2.80;;
7645;SDS011;3864;48.180;14.178;2023-09-19T03:21:17;4.90;;;2.60;;
7645;SDS011;3864;48.180;14.178;2023-09-19T03:23:46;6.68;;;2.83;;
7645;SDS011;3864;48.180;14.178;2023-09-19T03:26:14;8.43;;;2.70;;
7645;SDS011;3864;48.180;14.178;2023-09-19T03:28:43;5.22;;;2.60;;
7645;SDS011;3864;48.180;14.178;2023-09-19T03:31:12;6.72;;;2.63;;
7645;SDS011;3864;48.180;14.178;2023-09-19T03:33:39;4.78;;;2.70;;
7645;SDS011;3864;48.180;14.178;2023-09-19T03:36:07;6.68;;;2.95;;
7645;SDS011;3864;48.180;14.178;2023-09-19T03:38:34;6.22;;;2.90;;
7645;SDS011;3864;48.180;14.178;2023-09-19T03:41:01;5.63;;;2.83;;
7645;SDS011;3864;48.180;14.178;2023-09-19T03:43:29;5.88;;;2.88;;
7645;SDS011;3864;48.180;14.178;2023-09-19T03:46:02;6.82;;;2.78;;
7645;SDS011;3864;48.180;14.178;2023-09-19T03:48:30;5.55;;;2.92;;
7645;SDS011;3864;48.180;14.178;2023-09-19T03:50:57;6.45;;;3.00;;
7645;SDS011;3864;48.180;14.178;2023-09-19T03:53:24;6.55;;;3.25;;
7645;SDS011;3864;48.180;14.178;2023-09-19T03:55:51;5.13;;;2.83;;
7645;SDS011;3864;48.180;14.178;2023-09-19T03:58:18;6.85;;;3.10;;
7645;SDS011;3864;48.180;14.178;2023-09-19T04:00:45;5.07;;;2.78;;
7645;SDS011;3864;48.180;14.178;2023-09-19T04:03:14;5.75;;;3.30;;
7645;SDS011;3864;48.180;14.178;2023-09-19T04:08:12;10.23;;;3.33;;
7645;SDS011;3864;48.180;14.178;2023-09-19T04:10:41;4.32;;;2.65;;
7645;SDS011;3864;48.180;14.178;2023-09-19T04:13:09;4.88;;;2.72;;
7645;SDS011;3864;48.180;14.178;2023-09-19T04:15:37;8.10;;;3.45;;
7645;SDS011;3864;48.180;14.178;2023-09-19T04:18:05;5.13;;;2.75;;
7645;SDS011;3864;48.180;14.178;2023-09-19T04:20:34;6.25;;;2.90;;
7645;SDS011;3864;48.180;14.178;2023-09-19T04:23:01;6.35;;;3.85;;
7645;SDS011;3864;48.180;14.178;2023-09-19T04:25:29;7.95;;;3.75;;
7645;SDS011;3864;48.180;14.178;2023-09-19T04:27:56;6.18;;;3.00;;
7645;SDS011;3864;48.180;14.178;2023-09-19T04:30:24;6.43;;;3.10;;
7645;SDS011;3864;48.180;14.178;2023-09-19T04:32:52;5.60;;;2.85;;
7645;SDS011;3864;48.180;14.178;2023-09-19T04:35:19;5.75;;;2.83;;
7645;SDS011;3864;48.180;14.178;2023-09-19T04:37:48;5.47;;;3.00;;
7645;SDS011;3864;48.180;14.178;2023-09-19T04:40:16;5.88;;;2.90;;
7645;SDS011;3864;48.180;14.178;2023-09-19T04:42:44;4.45;;;2.55;;
7645;SDS011;3864;48.180;14.178;2023-09-19T04:45:13;7.00;;;3.78;;
7645;SDS011;3864;48.180;14.178;2023-09-19T04:47:40;6.25;;;3.05;;
7645;SDS011;3864;48.180;14.178;2023-09-19T04:50:09;5.40;;;2.80;;
7645;SDS011;3864;48.180;14.178;2023-09-19T04:52:39;6.85;;;2.90;;
7645;SDS011;3864;48.180;14.178;2023-09-19T04:55:11;7.15;;;2.75;;
7645;SDS011;3864;48.180;14.178;2023-09-19T04:57:41;7.03;;;3.10;;
7645;SDS011;3864;48.180;14.178;2023-09-19T05:00:10;5.60;;;2.80;;
7645;SDS011;3864;48.180;14.178;2023-09-19T05:02:39;5.43;;;2.67;;
7645;SDS011;3864;48.180;14.178;2023-09-19T05:05:07;5.40;;;2.97;;
7645;SDS011;3864;48.180;14.178;2023-09-19T05:07:35;4.80;;;2.88;;
7645;SDS011;3864;48.180;14.178;2023-09-19T05:10:02;6.30;;;3.50;;
7645;SDS011;3864;48.180;14.178;2023-09-19T05:12:33;6.38;;;3.20;;
7645;SDS011;3864;48.180;14.178;2023-09-19T05:15:01;8.10;;;3.10;;
7645;SDS011;3864;48.180;14.178;2023-09-19T05:17:29;7.00;;;3.40;;
7645;SDS011;3864;48.180;14.178;2023-09-19T05:19:56;6.50;;;3.30;;
7645;SDS011;3864;48.180;14.178;2023-09-19T05:22:26;6.50;;;3.55;;
7645;SDS011;3864;48.180;14.178;2023-09-19T05:24:54;5.97;;;3.13;;
7645;SDS011;3864;48.180;14.178;2023-09-19T05:27:21;8.35;;;3.67;;
7645;SDS011;3864;48.180;14.178;2023-09-19T05:29:49;7.53;;;3.58;;
7645;SDS011;3864;48.180;14.178;2023-09-19T05:32:18;6.10;;;3.53;;
7645;SDS011;3864;48.180;14.178;2023-09-19T05:34:48;8.52;;;3.72;;
7645;SDS011;3864;48.180;14.178;2023-09-19T05:37:18;8.48;;;3.53;;
7645;SDS011;3864;48.180;14.178;2023-09-19T05:39:45;9.93;;;3.50;;
7645;SDS011;3864;48.180;14.178;2023-09-19T05:42:12;7.57;;;3.22;;
7645;SDS011;3864;48.180;14.178;2023-09-19T05:44:39;8.40;;;3.78;;
7645;SDS011;3864;48.180;14.178;2023-09-19T05:47:08;9.98;;;4.05;;
7645;SDS011;3864;48.180;14.178;2023-09-19T05:49:35;7.18;;;3.80;;
7645;SDS011;3864;48.180;14.178;2023-09-19T05:52:04;9.50;;;3.88;;
7645;SDS011;3864;48.180;14.178;2023-09-19T05:54:31;7.35;;;4.03;;
7645;SDS011;3864;48.180;14.178;2023-09-19T05:56:59;7.00;;;3.63;;
7645;SDS011;3864;48.180;14.178;2023-09-19T05:59:26;6.82;;;3.60;;
7645;SDS011;3864;48.180;14.178;2023-09-19T06:01:54;6.78;;;3.47;;
7645;SDS011;3864;48.180;14.178;2023-09-19T06:04:22;9.10;;;3.60;;
7645;SDS011;3864;48.180;14.178;2023-09-19T06:06:50;9.43;;;3.70;;
7645;SDS011;3864;48.180;14.178;2023-09-19T06:09:17;7.38;;;3.90;;
7645;SDS011;3864;48.180;14.178;2023-09-19T06:11:44;10.57;;;4.00;;
7645;SDS011;3864;48.180;14.178;2023-09-19T06:14:11;7.88;;;3.75;;
7645;SDS011;3864;48.180;14.178;2023-09-19T06:16:39;8.20;;;3.75;;
7645;SDS011;3864;48.180;14.178;2023-09-19T06:19:07;6.85;;;4.00;;
7645;SDS011;3864;48.180;14.178;2023-09-19T06:21:35;8.43;;;3.80;;
7645;SDS011;3864;48.180;14.178;2023-09-19T06:24:04;11.25;;;3.80;;
7645;SDS011;3864;48.180;14.178;2023-09-19T06:26:31;8.48;;;3.83;;
7645;SDS011;3864;48.180;14.178;2023-09-19T06:28:58;8.63;;;3.83;;
7645;SDS011;3864;48.180;14.178;2023-09-19T06:31:26;7.13;;;3.45;;
7645;SDS011;3864;48.180;14.178;2023-09-19T06:33:53;7.07;;;3.67;;
7645;SDS011;3864;48.180;14.178;2023-09-19T06:36:20;8.18;;;3.42;;
7645;SDS011;3864;48.180;14.178;2023-09-19T06:38:49;5.47;;;3.28;;
7645;SDS011;3864;48.180;14.178;2023-09-19T06:41:17;5.75;;;3.55;;
7645;SDS011;3864;48.180;14.178;2023-09-19T06:43:44;7.32;;;2.78;;
7645;SDS011;3864;48.180;14.178;2023-09-19T06:46:11;5.05;;;3.28;;
7645;SDS011;3864;48.180;14.178;2023-09-19T06:48:39;6.22;;;2.85;;
7645;SDS011;3864;48.180;14.178;2023-09-19T06:51:09;5.18;;;2.97;;
7645;SDS011;3864;48.180;14.178;2023-09-19T06:53:36;6.50;;;2.85;;
7645;SDS011;3864;48.180;14.178;2023-09-19T06:56:07;6.10;;;2.80;;
7645;SDS011;3864;48.180;14.178;2023-09-19T06:58:34;6.80;;;3.40;;
7645;SDS011;3864;48.180;14.178;2023-09-19T07:01:01;4.60;;;2.83;;
7645;SDS011;3864;48.180;14.178;2023-09-19T07:03:29;5.10;;;2.92;;
7645;SDS011;3864;48.180;14.178;2023-09-19T07:05:58;6.38;;;3.30;;
7645;SDS011;3864;48.180;14.178;2023-09-19T07:08:25;5.25;;;2.55;;
7645;SDS011;3864;48.180;14.178;2023-09-19T07:10:53;6.60;;;2.78;;
7645;SDS011;3864;48.180;14.178;2023-09-19T07:13:24;5.10;;;2.88;;
7645;SDS011;3864;48.180;14.178;2023-09-19T07:15:51;5.35;;;3.05;;
7645;SDS011;3864;48.180;14.178;2023-09-19T07:18:19;8.00;;;2.97;;
7645;SDS011;3864;48.180;14.178;2023-09-19T07:20:46;3.95;;;2.50;;
7645;SDS011;3864;48.180;14.178;2023-09-19T07:23:15;5.20;;;2.80;;
7645;SDS011;3864;48.180;14.178;2023-09-19T07:25:43;5.05;;;3.47;;
7645;SDS011;3864;48.180;14.178;2023-09-19T07:28:11;4.43;;;2.50;;
7645;SDS011;3864;48.180;14.178;2023-09-19T07:30:40;5.63;;;2.60;;
7645;SDS011;3864;48.180;14.178;2023-09-19T07:33:07;3.80;;;2.40;;
7645;SDS011;3864;48.180;14.178;2023-09-19T07:35:36;4.68;;;2.40;;
7645;SDS011;3864;48.180;14.178;2023-09-19T07:38:05;4.25;;;2.40;;
7645;SDS011;3864;48.180;14.178;2023-09-19T07:40:33;3.80;;;2.30;;
7645;SDS011;3864;48.180;14.178;2023-09-19T07:43:00;3.65;;;2.05;;
7645;SDS011;3864;48.180;14.178;2023-09-19T07:45:29;3.65;;;2.20;;
7645;SDS011;3864;48.180;14.178;2023-09-19T07:47:57;3.20;;;2.03;;
7645;SDS011;3864;48.180;14.178;2023-09-19T07:50:26;4.65;;;2.15;;
7645;SDS011;3864;48.180;14.178;2023-09-19T07:52:53;3.60;;;2.10;;
7645;SDS011;3864;48.180;14.178;2023-09-19T07:55:21;4.55;;;2.10;;
7645;SDS011;3864;48.180;14.178;2023-09-19T07:57:50;5.72;;;2.33;;
7645;SDS011;3864;48.180;14.178;2023-09-19T08:00:17;4.65;;;2.13;;
7645;SDS011;3864;48.180;14.178;2023-09-19T08:02:45;3.92;;;2.38;;
7645;SDS011;3864;48.180;14.178;2023-09-19T08:05:14;3.53;;;2.00;;
7645;SDS011;3864;48.180;14.178;2023-09-19T08:07:43;5.93;;;2.25;;
7645;SDS011;3864;48.180;14.178;2023-09-19T08:10:13;4.20;;;2.30;;
7645;SDS011;3864;48.180;14.178;2023-09-19T08:12:44;3.20;;;1.90;;
7645;SDS011;3864;48.180;14.178;2023-09-19T08:15:12;3.45;;;2.20;;
7645;SDS011;3864;48.180;14.178;2023-09-19T08:17:40;3.22;;;2.47;;
7645;SDS011;3864;48.180;14.178;2023-09-19T08:20:07;3.20;;;1.98;;
7645;SDS011;3864;48.180;14.178;2023-09-19T08:22:43;3.90;;;1.95;;
7645;SDS011;3864;48.180;14.178;2023-09-19T08:25:13;4.57;;;2.03;;
7645;SDS011;3864;48.180;14.178;2023-09-19T08:27:42;4.57;;;1.98;;
7645;SDS011;3864;48.180;14.178;2023-09-19T08:30:13;4.72;;;2.30;;
7645;SDS011;3864;48.180;14.178;2023-09-19T08:32:40;4.05;;;2.00;;
7645;SDS011;3864;48.180;14.178;2023-09-19T08:35:08;3.20;;;1.98;;
7645;SDS011;3864;48.180;14.178;2023-09-19T08:37:36;4.53;;;1.92;;
7645;SDS011;3864;48.180;14.178;2023-09-19T08:40:06;6.15;;;2.53;;
7645;SDS011;3864;48.180;14.178;2023-09-19T08:42:47;3.83;;;1.90;;
7645;SDS011;3864;48.180;14.178;2023-09-19T08:45:16;4.05;;;2.40;;
7645;SDS011;3864;48.180;14.178;2023-09-19T08:47:45;6.75;;;2.30;;
7645;SDS011;3864;48.180;14.178;2023-09-19T08:50:17;4.82;;;1.80;;
7645;SDS011;3864;48.180;14.178;2023-09-19T08:52:51;4.03;;;1.90;;
7645;SDS011;3864;48.180;14.178;2023-09-19T08:55:22;3.20;;;1.70;;
7645;SDS011;3864;48.180;14.178;2023-09-19T08:57:56;2.65;;;1.70;;
7645;SDS011;3864;48.180;14.178;2023-09-19T09:00:27;5.82;;;2.63;;
7645;SDS011;3864;48.180;14.178;2023-09-19T09:02:55;4.60;;;1.77;;
7645;SDS011;3864;48.180;14.178;2023-09-19T09:05:24;2.97;;;1.80;;
7645;SDS011;3864;48.180;14.178;2023-09-19T09:07:52;4.60;;;2.08;;
7645;SDS011;3864;48.180;14.178;2023-09-19T09:10:22;3.78;;;2.10;;
7645;SDS011;3864;48.180;14.178;2023-09-19T09:12:51;2.83;;;1.63;;
7645;SDS011;3864;48.180;14.178;2023-09-19T09:15:19;3.55;;;1.80;;
7645;SDS011;3864;48.180;14.178;2023-09-19T09:17:48;4.30;;;1.90;;
7645;SDS011;3864;48.180;14.178;2023-09-19T09:20:18;3.38;;;2.10;;
7645;SDS011;3864;48.180;14.178;2023-09-19T09:22:51;3.88;;;1.80;;
7645;SDS011;3864;48.180;14.178;2023-09-19T09:25:19;3.55;;;1.70;;
7645;SDS011;3864;48.180;14.178;2023-09-19T09:27:56;5.70;;;2.00;;
7645;SDS011;3864;48.180;14.178;2023-09-19T09:30:32;5.25;;;1.88;;
7645;SDS011;3864;48.180;14.178;2023-09-19T09:33:08;4.47;;;1.85;;
7645;SDS011;3864;48.180;14.178;2023-09-19T09:35:36;2.83;;;1.60;;
7645;SDS011;3864;48.180;14.178;2023-09-19T09:38:04;3.42;;;1.88;;
7645;SDS011;3864;48.180;14.178;2023-09-19T09:40:45;2.72;;;1.70;;
7645;SDS011;3864;48.180;14.178;2023-09-19T09:43:29;3.33;;;1.80;;
7645;SDS011;3864;48.180;14.178;2023-09-19T09:46:07;3.35;;;1.73;;
7645;SDS011;3864;48.180;14.178;2023-09-19T09:48:55;3.72;;;1.80;;
7645;SDS011;3864;48.180;14.178;2023-09-19T09:51:40;3.08;;;1.67;;
7645;SDS011;3864;48.180;14.178;2023-09-19T09:54:16;3.15;;;1.70;;
7645;SDS011;3864;48.180;14.178;2023-09-19T09:56:53;2.72;;;1.75;;
7645;SDS011;3864;48.180;14.178;2023-09-19T10:02:19;3.60;;;2.10;;
7645;SDS011;3864;48.180;14.178;2023-09-19T10:04:50;2.90;;;1.70;;
7645;SDS011;3864;48.180;14.178;2023-09-19T10:07:27;5.03;;;2.00;;
7645;SDS011;3864;48.180;14.178;2023-09-19T10:09:58;2.47;;;1.40;;
7645;SDS011;3864;48.180;14.178;2023-09-19T10:12:35;2.40;;;1.80;;
7645;SDS011;3864;48.180;14.178;2023-09-19T10:15:08;3.05;;;1.95;;
7645;SDS011;3864;48.180;14.178;2023-09-19T10:17:42;3.25;;;1.60;;
7645;SDS011;3864;48.180;14.178;2023-09-19T10:20:13;2.88;;;1.70;;
7645;SDS011;3864;48.180;14.178;2023-09-19T10:22:59;2.92;;;1.80;;
7645;SDS011;3864;48.180;14.178;2023-09-19T10:25:28;2.53;;;1.67;;
7645;SDS011;3864;48.180;14.178;2023-09-19T10:27:56;4.53;;;1.80;;
7645;SDS011;3864;48.180;14.178;2023-09-19T10:30:30;3.15;;;1.70;;
7645;SDS011;3864;48.180;14.178;2023-09-19T10:33:00;4.15;;;2.15;;
7645;SDS011;3864;48.180;14.178;2023-09-19T10:35:29;2.80;;;1.65;;
7645;SDS011;3864;48.180;14.178;2023-09-19T10:37:57;5.10;;;1.73;;
7645;SDS011;3864;48.180;14.178;2023-09-19T10:40:27;1.92;;;1.50;;
7645;SDS011;3864;48.180;14.178;2023-09-19T10:43:00;3.70;;;2.13;;
7645;SDS011;3864;48.180;14.178;2023-09-19T10:45:33;2.53;;;1.50;;
7645;SDS011;3864;48.180;14.178;2023-09-19T10:48:04;3.30;;;1.80;;
7645;SDS011;3864;48.180;14.178;2023-09-19T10:50:33;5.05;;;1.80;;
7645;SDS011;3864;48.180;14.178;2023-09-19T10:55:33;2.75;;;1.70;;
7645;SDS011;3864;48.180;14.178;2023-09-19T10:58:02;3.30;;;1.80;;
7645;SDS011;3864;48.180;14.178;2023-09-19T11:03:27;3.03;;;1.88;;
7645;SDS011;3864;48.180;14.178;2023-09-19T11:06:00;3.35;;;1.90;;
7645;SDS011;3864;48.180;14.178;2023-09-19T11:08:53;7.20;;;1.92;;
7645;SDS011;3864;48.180;14.178;2023-09-19T11:11:47;2.55;;;1.75;;
7645;SDS011;3864;48.180;14.178;2023-09-19T11:20:22;2.40;;;1.50;;
7645;SDS011;3864;48.180;14.178;2023-09-19T11:23:17;3.78;;;2.08;;
7645;SDS011;3864;48.180;14.178;2023-09-19T11:25:48;4.47;;;1.70;;
7645;SDS011;3864;48.180;14.178;2023-09-19T11:28:30;3.63;;;1.75;;
7645;SDS011;3864;48.180;14.178;2023-09-19T11:30:58;2.85;;;1.60;;
7645;SDS011;3864;48.180;14.178;2023-09-19T11:33:27;3.15;;;1.67;;
7645;SDS011;3864;48.180;14.178;2023-09-19T11:36:03;2.80;;;1.60;;
7645;SDS011;3864;48.180;14.178;2023-09-19T11:41:37;2.70;;;1.60;;
7645;SDS011;3864;48.180;14.178;2023-09-19T11:47:02;3.47;;;1.63;;
7645;SDS011;3864;48.180;14.178;2023-09-19T11:49:32;3.42;;;1.88;;
7645;SDS011;3864;48.180;14.178;2023-09-19T11:52:02;2.65;;;1.65;;
7645;SDS011;3864;48.180;14.178;2023-09-19T11:54:33;3.20;;;1.70;;
7645;SDS011;3864;48.180;14.178;2023-09-19T11:57:05;2.80;;;1.73;;
7645;SDS011;3864;48.180;14.178;2023-09-19T11:59:38;2.58;;;1.70;;
7645;SDS011;3864;48.180;14.178;2023-09-19T12:02:06;2.15;;;1.52;;
7645;SDS011;3864;48.180;14.178;2023-09-19T12:04:37;3.10;;;1.38;;
7645;SDS011;3864;48.180;14.178;2023-09-19T12:07:08;2.75;;;1.60;;
7645;SDS011;3864;48.180;14.178;2023-09-19T12:09:40;3.20;;;1.70;;
7645;SDS011;3864;48.180;14.178;2023-09-19T12:12:11;3.65;;;1.70;;
7645;SDS011;3864;48.180;14.178;2023-09-19T12:14:47;3.50;;;1.67;;
7645;SDS011;3864;48.180;14.178;2023-09-19T12:17:15;2.72;;;1.90;;
7645;SDS011;3864;48.180;14.178;2023-09-19T12:19:51;2.95;;;1.75;;
7645;SDS011;3864;48.180;14.178;2023-09-19T12:22:18;4.95;;;1.70;;
7645;SDS011;3864;48.180;14.178;2023-09-19T12:24:46;4.07;;;1.88;;
7645;SDS011;3864;48.180;14.178;2023-09-19T12:27:15;3.45;;;1.65;;
7645;SDS011;3864;48.180;14.178;2023-09-19T12:29:43;2.38;;;1.60;;
7645;SDS011;3864;48.180;14.178;2023-09-19T12:32:11;3.03;;;1.58;;
7645;SDS011;3864;48.180;14.178;2023-09-19T12:34:42;2.35;;;1.50;;
7645;SDS011;3864;48.180;14.178;2023-09-19T12:37:19;3.33;;;1.70;;
7645;SDS011;3864;48.180;14.178;2023-09-19T12:39:48;3.80;;;1.67;;
7645;SDS011;3864;48.180;14.178;2023-09-19T12:42:16;1.85;;;1.40;;
7645;SDS011;3864;48.180;14.178;2023-09-19T12:44:45;3.30;;;1.42;;
7645;SDS011;3864;48.180;14.178;2023-09-19T12:47:14;3.40;;;1.50;;
7645;SDS011;3864;48.180;14.178;2023-09-19T12:52:40;2.60;;;1.42;;
7645;SDS011;3864;48.180;14.178;2023-09-19T12:55:09;3.00;;;1.80;;
7645;SDS011;3864;48.180;14.178;2023-09-19T12:57:55;3.03;;;1.60;;
7645;SDS011;3864;48.180;14.178;2023-09-19T13:00:31;3.83;;;2.00;;
7645;SDS011;3864;48.180;14.178;2023-09-19T13:03:13;2.97;;;1.50;;
7645;SDS011;3864;48.180;14.178;2023-09-19T13:05:50;4.10;;;1.50;;
7645;SDS011;3864;48.180;14.178;2023-09-19T13:11:08;1.40;;;1.20;;
7645;SDS011;3864;48.180;14.178;2023-09-19T13:13:38;2.47;;;1.30;;
7645;SDS011;3864;48.180;14.178;2023-09-19T13:16:06;3.75;;;1.25;;
7645;SDS011;3864;48.180;14.178;2023-09-19T13:18:44;3.20;;;1.20;;
7645;SDS011;3864;48.180;14.178;2023-09-19T13:21:12;2.42;;;1.40;;
7645;SDS011;3864;48.180;14.178;2023-09-19T13:23:49;2.42;;;1.40;;
7645;SDS011;3864;48.180;14.178;2023-09-19T13:26:17;1.90;;;1.17;;
7645;SDS011;3864;48.180;14.178;2023-09-19T13:28:44;2.28;;;1.30;;
7645;SDS011;3864;48.180;14.178;2023-09-19T13:31:13;1.45;;;1.30;;
7645;SDS011;3864;48.180;14.178;2023-09-19T13:33:43;1.80;;;1.30;;
7645;SDS011;3864;48.180;14.178;2023-09-19T13:36:10;2.70;;;1.65;;
7645;SDS011;3864;48.180;14.178;2023-09-19T13:38:39;1.85;;;1.30;;
7645;SDS011;3864;48.180;14.178;2023-09-19T13:41:10;3.58;;;1.25;;
7645;SDS011;3864;48.180;14.178;2023-09-19T13:43:37;2.25;;;1.40;;
7645;SDS011;3864;48.180;14.178;2023-09-19T13:46:05;3.03;;;1.65;;
7645;SDS011;3864;48.180;14.178;2023-09-19T13:48:37;1.63;;;1.10;;
7645;SDS011;3864;48.180;14.178;2023-09-19T13:51:04;2.90;;;1.77;;
7645;SDS011;3864;48.180;14.178;2023-09-19T13:53:33;3.08;;;1.35;;
7645;SDS011;3864;48.180;14.178;2023-09-19T13:56:00;3.55;;;1.50;;
7645;SDS011;3864;48.180;14.178;2023-09-19T13:58:29;1.85;;;1.30;;
7645;SDS011;3864;48.180;14.178;2023-09-19T14:00:58;3.70;;;1.40;;
7645;SDS011;3864;48.180;14.178;2023-09-19T14:03:26;2.63;;;1.40;;
7645;SDS011;3864;48.180;14.178;2023-09-19T14:05:54;2.28;;;1.48;;
7645;SDS011;3864;48.180;14.178;2023-09-19T14:08:21;1.65;;;1.10;;
7645;SDS011;3864;48.180;14.178;2023-09-19T14:10:49;1.85;;;1.10;;
7645;SDS011;3864;48.180;14.178;2023-09-19T14:13:17;2.53;;;1.42;;
7645;SDS011;3864;48.180;14.178;2023-09-19T14:15:47;1.88;;;1.30;;
7645;SDS011;3864;48.180;14.178;2023-09-19T14:18:15;1.65;;;1.25;;
7645;SDS011;3864;48.180;14.178;2023-09-19T14:20:43;2.33;;;1.20;;
7645;SDS011;3864;48.180;14.178;2023-09-19T14:23:11;1.42;;;0.95;;
7645;SDS011;3864;48.180;14.178;2023-09-19T14:25:38;2.50;;;1.20;;
7645;SDS011;3864;48.180;14.178;2023-09-19T14:28:06;2.33;;;1.52;;
7645;SDS011;3864;48.180;14.178;2023-09-19T14:30:34;2.83;;;1.50;;
7645;SDS011;3864;48.180;14.178;2023-09-19T14:33:04;2.55;;;1.13;;
7645;SDS011;3864;48.180;14.178;2023-09-19T14:35:32;2.97;;;1.35;;
7645;SDS011;3864;48.180;14.178;2023-09-19T14:38:00;2.83;;;2.08;;
7645;SDS011;3864;48.180;14.178;2023-09-19T14:40:28;1.83;;;1.30;;
7645;SDS011;3864;48.180;14.178;2023-09-19T14:42:56;1.67;;;1.23;;
7645;SDS011;3864;48.180;14.178;2023-09-19T14:45:23;1.80;;;1.10;;
7645;SDS011;3864;48.180;14.178;2023-09-19T14:47:52;1.88;;;1.30;;
7645;SDS011;3864;48.180;14.178;2023-09-19T14:50:21;2.55;;;1.50;;
7645;SDS011;3864;48.180;14.178;2023-09-19T14:52:50;2.20;;;1.30;;
7645;SDS011;3864;48.180;14.178;2023-09-19T14:55:18;2.35;;;1.20;;
7645;SDS011;3864;48.180;14.178;2023-09-19T14:57:48;2.90;;;1.20;;
7645;SDS011;3864;48.180;14.178;2023-09-19T15:00:16;1.58;;;1.23;;
7645;SDS011;3864;48.180;14.178;2023-09-19T15:02:45;3.20;;;1.60;;
7645;SDS011;3864;48.180;14.178;2023-09-19T15:05:15;1.85;;;1.15;;
7645;SDS011;3864;48.180;14.178;2023-09-19T15:07:44;3.13;;;1.40;;
7645;SDS011;3864;48.180;14.178;2023-09-19T15:10:10;1.60;;;1.10;;
7645;SDS011;3864;48.180;14.178;2023-09-19T15:12:38;2.35;;;1.40;;
7645;SDS011;3864;48.180;14.178;2023-09-19T15:15:05;2.72;;;1.25;;
7645;SDS011;3864;48.180;14.178;2023-09-19T15:17:34;1.58;;;1.20;;
7645;SDS011;3864;48.180;14.178;2023-09-19T15:20:02;2.00;;;1.30;;
7645;SDS011;3864;48.180;14.178;2023-09-19T15:22:31;2.20;;;1.30;;
7645;SDS011;3864;48.180;14.178;2023-09-19T15:25:00;2.17;;;1.30;;
7645;SDS011;3864;48.180;14.178;2023-09-19T15:27:27;8.25;;;1.73;;
7645;SDS011;3864;48.180;14.178;2023-09-19T15:29:56;1.80;;;1.30;;
7645;SDS011;3864;48.180;14.178;2023-09-19T15:32:23;1.52;;;1.30;;
7645;SDS011;3864;48.180;14.178;2023-09-19T15:34:50;2.25;;;1.40;;
7645;SDS011;3864;48.180;14.178;2023-09-19T15:37:17;2.55;;;1.50;;
7645;SDS011;3864;48.180;14.178;2023-09-19T15:39:45;2.50;;;1.60;;
7645;SDS011;3864;48.180;14.178;2023-09-19T15:42:14;2.20;;;1.50;;
7645;SDS011;3864;48.180;14.178;2023-09-19T15:44:41;2.88;;;1.55;;
7645;SDS011;3864;48.180;14.178;2023-09-19T15:47:11;2.28;;;1.50;;
7645;SDS011;3864;48.180;14.178;2023-09-19T15:49:38;2.33;;;1.50;;